»·PEaware :: N2442P KRAP-KCPR

N2442P :: KRAP-KCPR

FLIGHT INFORMATION

Flight Status: Arrived
Operator: Privately registered:
United States
More flights under this callsign
Pilot: Ken Q. (14290)
Aircraft: MOONEY M-20K/M ENCORE BRAVO
(M20T)
More flights by this aircraft type
Origin: KRAP Rapid City Regl
United States
Destination: KCPR Natrona Co Intl
United States
More flights between these airports :: More routes between these airports
Route: +KRAP WILDA DDY KCPR
File this flight plan on PilotEdge
Remarks: X
Altitude:
(Current/Filed)
8,500ft
Speed:
(Current/Filed)
175kts
Departed: 10-Aug-20 11:49 AM
Arrived: 10-Aug-20 12:53 PM
Distance/Time
Traveled:
163nm/1:03
Distance/Time
To Go:
Arrived

Flight Plot

Page will automatically refresh every two minutes.

Flight plan parsing failed; only flown route is shown


Map Options




Map Legend


Flown Route
Filed Route
Departure Airport
Arrival Airport
Navaid (VOR, NDB)
Fix

Horizontal Profiles

Position Reports

Time Latitude Longitude Heading Altitude Ground
Speed
10-Aug-20 11:18 44.041869 -103.059922 293 3207ft 0kts
10-Aug-20 11:19 44.041869 -103.059922 293 3207ft 0kts
10-Aug-20 11:20 44.041869 -103.059922 293 3207ft 0kts
10-Aug-20 11:21 44.041869 -103.059922 293 3207ft 0kts
10-Aug-20 11:22 44.041869 -103.059922 293 3207ft 0kts
10-Aug-20 11:22 44.041869 -103.059922 293 3207ft 0kts
10-Aug-20 11:24 44.041869 -103.059922 293 3207ft 0kts
10-Aug-20 11:25 44.041869 -103.059922 293 3207ft 0kts
10-Aug-20 11:25 44.041869 -103.059922 293 3207ft 0kts
10-Aug-20 11:26 44.041869 -103.059922 293 3207ft 0kts
10-Aug-20 11:28 44.041869 -103.059922 293 3207ft 0kts
10-Aug-20 11:28 44.041869 -103.059922 293 3207ft 0kts
10-Aug-20 11:29 44.041869 -103.059922 293 3207ft 0kts
10-Aug-20 11:30 44.041869 -103.059922 293 3207ft 0kts
10-Aug-20 11:31 44.041869 -103.059922 293 3207ft 0kts
10-Aug-20 11:32 44.041869 -103.059922 293 3207ft 0kts
10-Aug-20 11:33 44.041869 -103.059922 293 3207ft 0kts
10-Aug-20 11:34 44.041869 -103.059922 293 3207ft 0kts
10-Aug-20 11:35 44.041870 -103.059923 293 3207ft 0kts
10-Aug-20 11:36 44.041870 -103.059923 293 3207ft 0kts
10-Aug-20 11:37 44.041870 -103.059923 293 3207ft 0kts
10-Aug-20 11:38 44.041870 -103.059924 293 3207ft 0kts
10-Aug-20 11:39 44.041870 -103.059924 293 3207ft 0kts
10-Aug-20 11:40 44.041870 -103.059924 293 3207ft 0kts
10-Aug-20 11:41 44.042113 -103.059791 33 3207ft 5kts
10-Aug-20 11:42 44.044415 -103.060245 331 3207ft 11kts
10-Aug-20 11:43 44.047988 -103.061932 334 3207ft 15kts
10-Aug-20 11:44 44.052296 -103.065113 331 3207ft 24kts
10-Aug-20 11:45 44.052966 -103.065537 143 3207ft 0kts
10-Aug-20 11:46 44.053363 -103.065466 55 3207ft 0kts
10-Aug-20 11:47 44.052273 -103.063829 152 3207ft 34kts
10-Aug-20 11:48 44.033507 -103.051114 151 3578ft 90kts
10-Aug-20 11:49 44.011389 -103.073784 235 4220ft 127kts
10-Aug-20 11:50 43.994012 -103.118741 235 4862ft 135kts
10-Aug-20 11:51 43.976155 -103.164126 235 5471ft 130kts
10-Aug-20 11:52 43.956748 -103.207934 234 6116ft 136kts
10-Aug-20 11:53 43.936177 -103.253362 235 6730ft 137kts
10-Aug-20 11:54 43.915465 -103.296550 232 7329ft 132kts
10-Aug-20 11:55 43.894997 -103.338718 232 7956ft 133kts
10-Aug-20 11:56 43.879559 -103.386110 256 8541ft 144kts
10-Aug-20 11:57 43.879435 -103.447610 274 8580ft 170kts
10-Aug-20 11:58 43.887354 -103.513643 277 8587ft 176kts
10-Aug-20 11:59 43.897277 -103.580818 278 8590ft 179kts
10-Aug-20 12:00 43.907268 -103.648544 278 8584ft 178kts
10-Aug-20 12:01 43.917215 -103.715893 277 8580ft 178kts
10-Aug-20 12:02 43.922906 -103.783650 265 8579ft 175kts
10-Aug-20 12:03 43.919402 -103.850764 261 8571ft 174kts
10-Aug-20 12:04 43.914846 -103.917539 261 8562ft 173kts
10-Aug-20 12:05 43.910164 -103.984346 260 8551ft 173kts
10-Aug-20 12:06 43.904523 -104.050828 260 8542ft 174kts
10-Aug-20 12:07 43.898850 -104.118035 259 8536ft 175kts
10-Aug-20 12:08 43.893447 -104.185317 259 8526ft 174kts
10-Aug-20 12:09 43.888130 -104.252079 260 8517ft 175kts
10-Aug-20 12:10 43.876742 -104.316241 239 8516ft 170kts
10-Aug-20 12:11 43.853627 -104.373568 238 8516ft 172kts
10-Aug-20 12:12 43.829954 -104.431726 238 8516ft 173kts
10-Aug-20 12:13 43.807007 -104.490375 239 8517ft 173kts
10-Aug-20 12:14 43.784177 -104.548941 239 8518ft 171kts
10-Aug-20 12:15 43.761520 -104.606927 239 8519ft 173kts
10-Aug-20 12:16 43.738531 -104.665306 239 8516ft 172kts
10-Aug-20 12:17 43.715685 -104.723345 239 8506ft 172kts
10-Aug-20 12:18 43.692921 -104.781169 239 8504ft 170kts
10-Aug-20 12:19 43.670177 -104.838801 239 8502ft 171kts
10-Aug-20 12:20 43.647177 -104.896605 239 8501ft 172kts
10-Aug-20 12:21 43.623974 -104.954800 239 8499ft 171kts
10-Aug-20 12:22 43.601025 -105.012364 239 8500ft 172kts
10-Aug-20 12:23 43.577785 -105.070632 239 8499ft 174kts
10-Aug-20 12:24 43.554360 -105.128932 239 8498ft 174kts
10-Aug-20 12:25 43.530960 -105.187117 239 8497ft 172kts
10-Aug-20 12:26 43.507722 -105.244797 239 8498ft 173kts
10-Aug-20 12:27 43.484344 -105.302760 239 8497ft 173kts
10-Aug-20 12:28 43.461030 -105.360525 239 8497ft 171kts
10-Aug-20 12:29 43.437553 -105.418586 239 8496ft 175kts
10-Aug-20 12:30 43.413905 -105.477030 239 8495ft 172kts
10-Aug-20 12:31 43.390712 -105.534311 239 8496ft 171kts
10-Aug-20 12:32 43.367559 -105.591346 239 8497ft 171kts
10-Aug-20 12:33 43.344072 -105.648649 239 8499ft 173kts
10-Aug-20 12:34 43.320425 -105.706109 239 8497ft 171kts
10-Aug-20 12:35 43.296982 -105.762989 239 8498ft 170kts
10-Aug-20 12:36 43.273534 -105.819741 239 8500ft 173kts
10-Aug-20 12:37 43.250925 -105.878252 242 8497ft 171kts
10-Aug-20 12:38 43.229671 -105.936623 242 8498ft 172kts
10-Aug-20 12:39 43.208288 -105.995174 242 8497ft 170kts
10-Aug-20 12:40 43.186665 -106.053219 242 8499ft 173kts
10-Aug-20 12:41 43.164924 -106.111022 242 8447ft 159kts
10-Aug-20 12:42 43.145253 -106.163353 241 7935ft 152kts
10-Aug-20 12:43 43.124214 -106.215381 239 7441ft 159kts
10-Aug-20 12:44 43.098170 -106.264971 228 6947ft 160kts
10-Aug-20 12:45 43.066390 -106.304950 218 6438ft 148kts
10-Aug-20 12:46 43.037117 -106.336936 218 6271ft 112kts
10-Aug-20 12:47 43.015721 -106.360637 217 6318ft 103kts
10-Aug-20 12:48 42.988380 -106.383402 203 6309ft 123kts
10-Aug-20 12:49 42.956206 -106.403166 204 6230ft 130kts
10-Aug-20 12:50 42.930225 -106.427484 224 5903ft 87kts
10-Aug-20 12:51 42.911866 -106.450878 221 5386ft 84kts
10-Aug-20 12:52 42.903644 -106.461661 220 5350ft 34kts
10-Aug-20 12:53 42.900462 -106.463782 180 5350ft 10kts
10-Aug-20 12:54 42.901516 -106.460729 139 5350ft 9kts
10-Aug-20 12:55 42.901622 -106.460052 222 5350ft 0kts
10-Aug-20 12:56 42.901622 -106.460052 222 5350ft 0kts
10-Aug-20 12:57 42.901622 -106.460052 222 5350ft 0kts
10-Aug-20 12:58 42.901622 -106.460052 222 5350ft 0kts

Navigation Log

Ident Type
Flight plan parsing failed, navigation log unavailable